sensor_id;sensor_type;location;lat;lon;timestamp;P1;durP1;ratioP1;P2;durP2;ratioP2
3004;SDS011;1512;51.486;6.610;2023-04-24T00:03:22;2.73;;;2.50;;
3004;SDS011;1512;51.486;6.610;2023-04-24T00:07:31;2.90;;;2.67;;
3004;SDS011;1512;51.486;6.610;2023-04-24T00:11:40;2.97;;;2.63;;
3004;SDS011;1512;51.486;6.610;2023-04-24T00:15:49;3.43;;;3.13;;
3004;SDS011;1512;51.486;6.610;2023-04-24T00:19:58;3.67;;;3.30;;
3004;SDS011;1512;51.486;6.610;2023-04-24T00:24:07;2.90;;;2.60;;
3004;SDS011;1512;51.486;6.610;2023-04-24T00:28:16;2.93;;;2.67;;
3004;SDS011;1512;51.486;6.610;2023-04-24T00:32:25;3.70;;;3.20;;
3004;SDS011;1512;51.486;6.610;2023-04-24T00:36:33;4.27;;;3.10;;
3004;SDS011;1512;51.486;6.610;2023-04-24T00:40:42;4.73;;;3.20;;
3004;SDS011;1512;51.486;6.610;2023-04-24T00:44:51;4.40;;;3.33;;
3004;SDS011;1512;51.486;6.610;2023-04-24T00:49:02;3.17;;;2.87;;
3004;SDS011;1512;51.486;6.610;2023-04-24T00:53:13;4.17;;;3.23;;
3004;SDS011;1512;51.486;6.610;2023-04-24T00:57:21;6.07;;;4.20;;
3004;SDS011;1512;51.486;6.610;2023-04-24T01:01:30;5.00;;;4.47;;
3004;SDS011;1512;51.486;6.610;2023-04-24T01:05:39;8.53;;;4.57;;
3004;SDS011;1512;51.486;6.610;2023-04-24T01:09:51;5.00;;;3.73;;
3004;SDS011;1512;51.486;6.610;2023-04-24T01:13:59;6.30;;;3.87;;
3004;SDS011;1512;51.486;6.610;2023-04-24T01:18:09;5.43;;;4.20;;
3004;SDS011;1512;51.486;6.610;2023-04-24T01:22:18;6.30;;;4.20;;
3004;SDS011;1512;51.486;6.610;2023-04-24T01:26:28;4.43;;;3.90;;
3004;SDS011;1512;51.486;6.610;2023-04-24T01:30:37;6.00;;;4.50;;
3004;SDS011;1512;51.486;6.610;2023-04-24T01:34:45;6.40;;;5.30;;
3004;SDS011;1512;51.486;6.610;2023-04-24T01:38:56;5.13;;;4.57;;
3004;SDS011;1512;51.486;6.610;2023-04-24T01:43:04;5.83;;;5.23;;
3004;SDS011;1512;51.486;6.610;2023-04-24T01:47:17;5.63;;;4.97;;
3004;SDS011;1512;51.486;6.610;2023-04-24T01:51:26;5.70;;;4.70;;
3004;SDS011;1512;51.486;6.610;2023-04-24T01:55:37;6.97;;;5.23;;
3004;SDS011;1512;51.486;6.610;2023-04-24T01:59:46;6.83;;;5.43;;
3004;SDS011;1512;51.486;6.610;2023-04-24T02:03:54;6.20;;;5.63;;
3004;SDS011;1512;51.486;6.610;2023-04-24T02:08:03;9.30;;;5.50;;
3004;SDS011;1512;51.486;6.610;2023-04-24T02:12:12;8.33;;;6.00;;
3004;SDS011;1512;51.486;6.610;2023-04-24T02:16:24;6.43;;;5.03;;
3004;SDS011;1512;51.486;6.610;2023-04-24T02:20:33;11.60;;;6.00;;
3004;SDS011;1512;51.486;6.610;2023-04-24T02:24:42;6.67;;;5.97;;
3004;SDS011;1512;51.486;6.610;2023-04-24T02:28:51;12.00;;;6.40;;
3004;SDS011;1512;51.486;6.610;2023-04-24T02:33:00;8.20;;;6.40;;
3004;SDS011;1512;51.486;6.610;2023-04-24T02:37:09;11.97;;;6.60;;
3004;SDS011;1512;51.486;6.610;2023-04-24T02:41:17;10.60;;;7.37;;
3004;SDS011;1512;51.486;6.610;2023-04-24T02:45:31;7.87;;;6.20;;
3004;SDS011;1512;51.486;6.610;2023-04-24T02:49:42;12.63;;;8.17;;
3004;SDS011;1512;51.486;6.610;2023-04-24T02:53:54;10.70;;;7.00;;
3004;SDS011;1512;51.486;6.610;2023-04-24T02:58:03;10.37;;;6.70;;
3004;SDS011;1512;51.486;6.610;2023-04-24T03:02:13;11.20;;;7.50;;
3004;SDS011;1512;51.486;6.610;2023-04-24T03:06:24;15.90;;;8.27;;
3004;SDS011;1512;51.486;6.610;2023-04-24T03:10:34;10.07;;;8.20;;
3004;SDS011;1512;51.486;6.610;2023-04-24T03:14:45;13.50;;;8.30;;
3004;SDS011;1512;51.486;6.610;2023-04-24T03:18:53;10.77;;;7.73;;
3004;SDS011;1512;51.486;6.610;2023-04-24T03:23:04;14.67;;;9.20;;
3004;SDS011;1512;51.486;6.610;2023-04-24T03:27:12;12.77;;;9.17;;
3004;SDS011;1512;51.486;6.610;2023-04-24T03:31:22;12.53;;;7.43;;
3004;SDS011;1512;51.486;6.610;2023-04-24T03:35:31;13.83;;;7.27;;
3004;SDS011;1512;51.486;6.610;2023-04-24T03:39:40;12.33;;;9.10;;
3004;SDS011;1512;51.486;6.610;2023-04-24T03:43:50;10.33;;;8.20;;
3004;SDS011;1512;51.486;6.610;2023-04-24T03:47:58;15.23;;;8.93;;
3004;SDS011;1512;51.486;6.610;2023-04-24T03:52:09;13.00;;;8.80;;
3004;SDS011;1512;51.486;6.610;2023-04-24T03:56:17;11.77;;;8.90;;
3004;SDS011;1512;51.486;6.610;2023-04-24T04:00:26;13.50;;;7.87;;
3004;SDS011;1512;51.486;6.610;2023-04-24T04:04:40;12.67;;;8.10;;
3004;SDS011;1512;51.486;6.610;2023-04-24T04:08:49;11.77;;;8.73;;
3004;SDS011;1512;51.486;6.610;2023-04-24T04:12:58;8.97;;;7.27;;
3004;SDS011;1512;51.486;6.610;2023-04-24T04:17:07;11.93;;;7.80;;
3004;SDS011;1512;51.486;6.610;2023-04-24T04:21:15;9.70;;;7.60;;
3004;SDS011;1512;51.486;6.610;2023-04-24T04:25:24;9.70;;;7.90;;
3004;SDS011;1512;51.486;6.610;2023-04-24T04:29:33;10.70;;;8.60;;
3004;SDS011;1512;51.486;6.610;2023-04-24T04:33:42;10.83;;;7.80;;
3004;SDS011;1512;51.486;6.610;2023-04-24T04:37:53;9.37;;;7.37;;
3004;SDS011;1512;51.486;6.610;2023-04-24T04:42:04;10.57;;;7.57;;
3004;SDS011;1512;51.486;6.610;2023-04-24T04:46:15;8.60;;;7.27;;
3004;SDS011;1512;51.486;6.610;2023-04-24T04:50:24;9.30;;;7.37;;
3004;SDS011;1512;51.486;6.610;2023-04-24T04:54:33;13.13;;;7.17;;
3004;SDS011;1512;51.486;6.610;2023-04-24T04:58:42;11.00;;;6.63;;
3004;SDS011;1512;51.486;6.610;2023-04-24T05:02:51;9.03;;;7.23;;
3004;SDS011;1512;51.486;6.610;2023-04-24T05:07:04;7.83;;;6.80;;
3004;SDS011;1512;51.486;6.610;2023-04-24T05:11:14;10.67;;;5.70;;
3004;SDS011;1512;51.486;6.610;2023-04-24T05:15:23;6.87;;;5.13;;
3004;SDS011;1512;51.486;6.610;2023-04-24T05:19:32;8.80;;;6.63;;
3004;SDS011;1512;51.486;6.610;2023-04-24T05:23:42;8.00;;;5.67;;
3004;SDS011;1512;51.486;6.610;2023-04-24T05:27:51;9.43;;;5.30;;
3004;SDS011;1512;51.486;6.610;2023-04-24T05:32:00;6.17;;;5.53;;
3004;SDS011;1512;51.486;6.610;2023-04-24T05:36:09;9.43;;;7.77;;
3004;SDS011;1512;51.486;6.610;2023-04-24T05:40:17;9.10;;;6.07;;
3004;SDS011;1512;51.486;6.610;2023-04-24T05:44:26;8.33;;;5.63;;
3004;SDS011;1512;51.486;6.610;2023-04-24T05:48:35;9.53;;;5.90;;
3004;SDS011;1512;51.486;6.610;2023-04-24T05:52:43;7.93;;;6.27;;
3004;SDS011;1512;51.486;6.610;2023-04-24T05:56:52;8.03;;;6.37;;
3004;SDS011;1512;51.486;6.610;2023-04-24T06:01:02;9.13;;;6.33;;
3004;SDS011;1512;51.486;6.610;2023-04-24T06:05:11;7.10;;;5.70;;
3004;SDS011;1512;51.486;6.610;2023-04-24T06:09:19;10.90;;;6.37;;
3004;SDS011;1512;51.486;6.610;2023-04-24T06:13:29;11.30;;;6.92;;
3004;SDS011;1512;51.486;6.610;2023-04-24T06:17:37;7.07;;;5.73;;
3004;SDS011;1512;51.486;6.610;2023-04-24T06:21:46;11.33;;;7.30;;
3004;SDS011;1512;51.486;6.610;2023-04-24T06:25:55;9.37;;;6.53;;
3004;SDS011;1512;51.486;6.610;2023-04-24T06:30:04;8.93;;;7.17;;
3004;SDS011;1512;51.486;6.610;2023-04-24T06:34:13;8.40;;;6.17;;
3004;SDS011;1512;51.486;6.610;2023-04-24T06:38:21;7.70;;;5.20;;
3004;SDS011;1512;51.486;6.610;2023-04-24T06:42:31;6.37;;;5.77;;
3004;SDS011;1512;51.486;6.610;2023-04-24T06:46:40;7.83;;;5.60;;
3004;SDS011;1512;51.486;6.610;2023-04-24T06:50:49;7.37;;;4.83;;
3004;SDS011;1512;51.486;6.610;2023-04-24T06:55:01;6.87;;;4.93;;
3004;SDS011;1512;51.486;6.610;2023-04-24T06:59:11;6.77;;;4.23;;
3004;SDS011;1512;51.486;6.610;2023-04-24T07:03:20;4.43;;;3.73;;
3004;SDS011;1512;51.486;6.610;2023-04-24T07:07:29;6.43;;;3.83;;
3004;SDS011;1512;51.486;6.610;2023-04-24T07:11:45;3.70;;;3.20;;
3004;SDS011;1512;51.486;6.610;2023-04-24T07:15:54;3.30;;;3.00;;
3004;SDS011;1512;51.486;6.610;2023-04-24T07:20:03;4.60;;;3.70;;
3004;SDS011;1512;51.486;6.610;2023-04-24T07:24:16;3.40;;;3.10;;
3004;SDS011;1512;51.486;6.610;2023-04-24T07:28:27;3.73;;;2.43;;
3004;SDS011;1512;51.486;6.610;2023-04-24T07:32:37;3.40;;;2.70;;
3004;SDS011;1512;51.486;6.610;2023-04-24T07:36:46;3.03;;;2.53;;
3004;SDS011;1512;51.486;6.610;2023-04-24T07:40:55;3.10;;;2.53;;
3004;SDS011;1512;51.486;6.610;2023-04-24T07:45:04;2.60;;;2.40;;
3004;SDS011;1512;51.486;6.610;2023-04-24T07:49:13;2.70;;;2.50;;
3004;SDS011;1512;51.486;6.610;2023-04-24T07:53:23;2.50;;;2.30;;
3004;SDS011;1512;51.486;6.610;2023-04-24T07:57:32;3.20;;;2.70;;
3004;SDS011;1512;51.486;6.610;2023-04-24T08:01:41;4.00;;;2.80;;
3004;SDS011;1512;51.486;6.610;2023-04-24T08:05:50;2.53;;;2.03;;
3004;SDS011;1512;51.486;6.610;2023-04-24T08:09:58;2.40;;;2.20;;
3004;SDS011;1512;51.486;6.610;2023-04-24T08:14:09;2.80;;;2.17;;
3004;SDS011;1512;51.486;6.610;2023-04-24T08:18:19;2.47;;;2.27;;
3004;SDS011;1512;51.486;6.610;2023-04-24T08:22:28;2.17;;;1.97;;
3004;SDS011;1512;51.486;6.610;2023-04-24T08:26:37;4.80;;;2.50;;
3004;SDS011;1512;51.486;6.610;2023-04-24T08:30:46;2.03;;;1.93;;
3004;SDS011;1512;51.486;6.610;2023-04-24T08:34:58;2.63;;;2.20;;
3004;SDS011;1512;51.486;6.610;2023-04-24T08:39:07;2.50;;;2.30;;
3004;SDS011;1512;51.486;6.610;2023-04-24T08:43:16;2.20;;;1.80;;
3004;SDS011;1512;51.486;6.610;2023-04-24T08:47:25;2.30;;;2.10;;
3004;SDS011;1512;51.486;6.610;2023-04-24T08:51:36;2.60;;;2.40;;
3004;SDS011;1512;51.486;6.610;2023-04-24T08:56:05;6.30;;;4.20;;
3004;SDS011;1512;51.486;6.610;2023-04-24T09:00:15;7.83;;;4.90;;
3004;SDS011;1512;51.486;6.610;2023-04-24T09:04:25;9.07;;;6.17;;
3004;SDS011;1512;51.486;6.610;2023-04-24T09:08:36;7.27;;;5.10;;
3004;SDS011;1512;51.486;6.610;2023-04-24T09:12:46;8.37;;;5.77;;
3004;SDS011;1512;51.486;6.610;2023-04-24T09:16:55;6.90;;;6.03;;
3004;SDS011;1512;51.486;6.610;2023-04-24T09:21:05;8.47;;;5.13;;
3004;SDS011;1512;51.486;6.610;2023-04-24T09:25:17;6.50;;;5.00;;
3004;SDS011;1512;51.486;6.610;2023-04-24T09:29:26;6.47;;;5.80;;
3004;SDS011;1512;51.486;6.610;2023-04-24T09:33:35;10.40;;;6.20;;
3004;SDS011;1512;51.486;6.610;2023-04-24T09:37:45;8.10;;;6.27;;
3004;SDS011;1512;51.486;6.610;2023-04-24T09:41:56;8.43;;;5.83;;
3004;SDS011;1512;51.486;6.610;2023-04-24T09:46:06;6.30;;;5.70;;
3004;SDS011;1512;51.486;6.610;2023-04-24T09:50:16;8.47;;;5.70;;
3004;SDS011;1512;51.486;6.610;2023-04-24T09:54:27;7.07;;;5.73;;
3004;SDS011;1512;51.486;6.610;2023-04-24T09:58:36;7.20;;;4.83;;
3004;SDS011;1512;51.486;6.610;2023-04-24T10:02:47;3.67;;;3.20;;
3004;SDS011;1512;51.486;6.610;2023-04-24T10:06:59;6.43;;;4.80;;
3004;SDS011;1512;51.486;6.610;2023-04-24T10:11:09;6.20;;;4.80;;
3004;SDS011;1512;51.486;6.610;2023-04-24T10:15:20;5.17;;;4.67;;
3004;SDS011;1512;51.486;6.610;2023-04-24T10:19:29;5.30;;;4.80;;
3004;SDS011;1512;51.486;6.610;2023-04-24T10:27:54;7.17;;;4.40;;
3004;SDS011;1512;51.486;6.610;2023-04-24T10:32:06;13.90;;;4.93;;
3004;SDS011;1512;51.486;6.610;2023-04-24T10:36:16;7.60;;;5.07;;
3004;SDS011;1512;51.486;6.610;2023-04-24T10:40:31;7.43;;;4.40;;
3004;SDS011;1512;51.486;6.610;2023-04-24T10:44:40;18.83;;;4.50;;
3004;SDS011;1512;51.486;6.610;2023-04-24T10:48:53;7.53;;;5.17;;
3004;SDS011;1512;51.486;6.610;2023-04-24T10:53:06;7.20;;;4.73;;
3004;SDS011;1512;51.486;6.610;2023-04-24T11:01:54;8.50;;;5.33;;
3004;SDS011;1512;51.486;6.610;2023-04-24T11:06:07;9.80;;;4.83;;
3004;SDS011;1512;51.486;6.610;2023-04-24T11:10:26;6.03;;;4.50;;
3004;SDS011;1512;51.486;6.610;2023-04-24T11:19:07;15.87;;;5.53;;
3004;SDS011;1512;51.486;6.610;2023-04-24T11:23:18;4.53;;;4.10;;
3004;SDS011;1512;51.486;6.610;2023-04-24T11:27:29;6.27;;;4.10;;
3004;SDS011;1512;51.486;6.610;2023-04-24T11:31:44;8.33;;;4.50;;
3004;SDS011;1512;51.486;6.610;2023-04-24T11:35:57;8.63;;;4.93;;
3004;SDS011;1512;51.486;6.610;2023-04-24T11:40:07;5.20;;;3.83;;
3004;SDS011;1512;51.486;6.610;2023-04-24T11:44:36;7.60;;;6.77;;
3004;SDS011;1512;51.486;6.610;2023-04-24T11:48:46;5.93;;;4.40;;
3004;SDS011;1512;51.486;6.610;2023-04-24T11:52:54;5.00;;;4.50;;
3004;SDS011;1512;51.486;6.610;2023-04-24T11:57:04;4.83;;;3.50;;
3004;SDS011;1512;51.486;6.610;2023-04-24T12:01:13;10.70;;;4.50;;
3004;SDS011;1512;51.486;6.610;2023-04-24T12:05:26;4.93;;;3.70;;
3004;SDS011;1512;51.486;6.610;2023-04-24T12:09:42;7.73;;;3.80;;
3004;SDS011;1512;51.486;6.610;2023-04-24T12:13:54;4.47;;;4.03;;
3004;SDS011;1512;51.486;6.610;2023-04-24T12:18:05;5.70;;;3.40;;
3004;SDS011;1512;51.486;6.610;2023-04-24T12:22:51;3.90;;;3.30;;
3004;SDS011;1512;51.486;6.610;2023-04-24T12:27:20;3.20;;;2.90;;
3004;SDS011;1512;51.486;6.610;2023-04-24T12:31:29;6.30;;;4.20;;
3004;SDS011;1512;51.486;6.610;2023-04-24T12:35:39;7.30;;;3.83;;
3004;SDS011;1512;51.486;6.610;2023-04-24T12:39:58;5.90;;;4.30;;
3004;SDS011;1512;51.486;6.610;2023-04-24T12:44:17;3.50;;;3.20;;
3004;SDS011;1512;51.486;6.610;2023-04-24T12:48:27;3.73;;;3.33;;
3004;SDS011;1512;51.486;6.610;2023-04-24T12:52:36;4.30;;;2.50;;
3004;SDS011;1512;51.486;6.610;2023-04-24T12:57:07;6.33;;;2.53;;
3004;SDS011;1512;51.486;6.610;2023-04-24T13:01:16;2.30;;;2.10;;
3004;SDS011;1512;51.486;6.610;2023-04-24T13:05:25;2.53;;;2.20;;
3004;SDS011;1512;51.486;6.610;2023-04-24T13:09:34;2.63;;;2.40;;
3004;SDS011;1512;51.486;6.610;2023-04-24T13:13:43;2.53;;;2.33;;
3004;SDS011;1512;51.486;6.610;2023-04-24T13:17:51;5.90;;;3.17;;
3004;SDS011;1512;51.486;6.610;2023-04-24T13:22:02;3.77;;;2.80;;
3004;SDS011;1512;51.486;6.610;2023-04-24T13:26:11;3.20;;;2.90;;
3004;SDS011;1512;51.486;6.610;2023-04-24T13:30:19;2.90;;;2.57;;
3004;SDS011;1512;51.486;6.610;2023-04-24T13:34:28;7.17;;;2.33;;
3004;SDS011;1512;51.486;6.610;2023-04-24T13:38:37;5.43;;;2.57;;
3004;SDS011;1512;51.486;6.610;2023-04-24T13:42:45;4.47;;;2.83;;
3004;SDS011;1512;51.486;6.610;2023-04-24T13:46:54;5.40;;;3.13;;
3004;SDS011;1512;51.486;6.610;2023-04-24T13:51:04;2.70;;;2.50;;
3004;SDS011;1512;51.486;6.610;2023-04-24T13:55:13;4.87;;;2.90;;
3004;SDS011;1512;51.486;6.610;2023-04-24T13:59:21;4.30;;;3.00;;
3004;SDS011;1512;51.486;6.610;2023-04-24T14:03:33;2.80;;;2.60;;
3004;SDS011;1512;51.486;6.610;2023-04-24T14:07:42;2.93;;;2.63;;
3004;SDS011;1512;51.486;6.610;2023-04-24T14:11:51;3.53;;;2.90;;
3004;SDS011;1512;51.486;6.610;2023-04-24T14:16:00;3.33;;;2.90;;
3004;SDS011;1512;51.486;6.610;2023-04-24T14:20:08;3.83;;;2.33;;
3004;SDS011;1512;51.486;6.610;2023-04-24T14:24:18;4.60;;;2.83;;
3004;SDS011;1512;51.486;6.610;2023-04-24T14:28:27;3.10;;;2.80;;
3004;SDS011;1512;51.486;6.610;2023-04-24T14:32:36;3.10;;;2.77;;
3004;SDS011;1512;51.486;6.610;2023-04-24T14:36:46;3.47;;;3.17;;
3004;SDS011;1512;51.486;6.610;2023-04-24T14:40:55;3.87;;;3.27;;
3004;SDS011;1512;51.486;6.610;2023-04-24T14:45:06;4.10;;;3.13;;
3004;SDS011;1512;51.486;6.610;2023-04-24T14:49:35;3.27;;;2.77;;
3004;SDS011;1512;51.486;6.610;2023-04-24T14:53:44;3.80;;;3.40;;
3004;SDS011;1512;51.486;6.610;2023-04-24T14:57:54;3.20;;;2.60;;
3004;SDS011;1512;51.486;6.610;2023-04-24T15:02:03;4.00;;;2.80;;
3004;SDS011;1512;51.486;6.610;2023-04-24T15:06:13;2.90;;;2.70;;
3004;SDS011;1512;51.486;6.610;2023-04-24T15:10:22;2.93;;;2.73;;
3004;SDS011;1512;51.486;6.610;2023-04-24T15:14:32;2.93;;;2.63;;
3004;SDS011;1512;51.486;6.610;2023-04-24T15:18:41;2.50;;;2.30;;
3004;SDS011;1512;51.486;6.610;2023-04-24T15:22:49;2.47;;;2.20;;
3004;SDS011;1512;51.486;6.610;2023-04-24T15:26:58;3.73;;;2.97;;
3004;SDS011;1512;51.486;6.610;2023-04-24T15:31:08;6.40;;;3.10;;
3004;SDS011;1512;51.486;6.610;2023-04-24T15:35:17;2.60;;;2.33;;
3004;SDS011;1512;51.486;6.610;2023-04-24T15:39:26;4.30;;;2.73;;
3004;SDS011;1512;51.486;6.610;2023-04-24T15:43:34;3.40;;;3.10;;
3004;SDS011;1512;51.486;6.610;2023-04-24T15:47:45;3.50;;;3.13;;
3004;SDS011;1512;51.486;6.610;2023-04-24T15:51:54;5.87;;;3.40;;
3004;SDS011;1512;51.486;6.610;2023-04-24T15:56:02;5.80;;;3.40;;
3004;SDS011;1512;51.486;6.610;2023-04-24T16:00:12;3.47;;;3.13;;
3004;SDS011;1512;51.486;6.610;2023-04-24T16:04:21;4.20;;;3.80;;
3004;SDS011;1512;51.486;6.610;2023-04-24T16:08:30;3.17;;;2.97;;
3004;SDS011;1512;51.486;6.610;2023-04-24T16:12:39;3.07;;;2.87;;
3004;SDS011;1512;51.486;6.610;2023-04-24T16:16:48;3.50;;;3.03;;
3004;SDS011;1512;51.486;6.610;2023-04-24T16:20:57;5.77;;;2.90;;
3004;SDS011;1512;51.486;6.610;2023-04-24T16:25:07;3.03;;;2.60;;
3004;SDS011;1512;51.486;6.610;2023-04-24T16:29:16;3.60;;;3.30;;
3004;SDS011;1512;51.486;6.610;2023-04-24T16:33:25;6.23;;;2.87;;
3004;SDS011;1512;51.486;6.610;2023-04-24T16:37:34;3.33;;;2.67;;
3004;SDS011;1512;51.486;6.610;2023-04-24T16:41:43;6.70;;;3.50;;
3004;SDS011;1512;51.486;6.610;2023-04-24T16:45:52;4.27;;;3.00;;
3004;SDS011;1512;51.486;6.610;2023-04-24T16:50:01;3.33;;;3.03;;
3004;SDS011;1512;51.486;6.610;2023-04-24T16:54:11;4.17;;;3.17;;
3004;SDS011;1512;51.486;6.610;2023-04-24T16:58:19;7.00;;;2.93;;
3004;SDS011;1512;51.486;6.610;2023-04-24T17:02:28;3.10;;;2.53;;
3004;SDS011;1512;51.486;6.610;2023-04-24T17:06:37;5.30;;;3.43;;
3004;SDS011;1512;51.486;6.610;2023-04-24T17:10:46;6.73;;;3.30;;
3004;SDS011;1512;51.486;6.610;2023-04-24T17:14:54;3.20;;;2.93;;
3004;SDS011;1512;51.486;6.610;2023-04-24T17:19:03;7.13;;;3.27;;
3004;SDS011;1512;51.486;6.610;2023-04-24T17:23:12;4.23;;;3.20;;
3004;SDS011;1512;51.486;6.610;2023-04-24T17:27:21;3.00;;;2.70;;
3004;SDS011;1512;51.486;6.610;2023-04-24T17:31:31;3.20;;;2.90;;
3004;SDS011;1512;51.486;6.610;2023-04-24T17:35:39;5.10;;;3.40;;
3004;SDS011;1512;51.486;6.610;2023-04-24T17:39:48;6.80;;;4.33;;
3004;SDS011;1512;51.486;6.610;2023-04-24T17:43:57;4.63;;;3.73;;
3004;SDS011;1512;51.486;6.610;2023-04-24T17:48:06;2.63;;;2.43;;
3004;SDS011;1512;51.486;6.610;2023-04-24T17:52:14;6.70;;;3.90;;
3004;SDS011;1512;51.486;6.610;2023-04-24T17:56:23;3.77;;;3.27;;
3004;SDS011;1512;51.486;6.610;2023-04-24T18:00:33;4.67;;;3.80;;
3004;SDS011;1512;51.486;6.610;2023-04-24T18:04:41;5.63;;;3.87;;
3004;SDS011;1512;51.486;6.610;2023-04-24T18:13:20;5.20;;;4.40;;
3004;SDS011;1512;51.486;6.610;2023-04-24T18:17:29;3.37;;;3.00;;
3004;SDS011;1512;51.486;6.610;2023-04-24T18:21:38;9.80;;;4.37;;
3004;SDS011;1512;51.486;6.610;2023-04-24T18:25:47;4.40;;;4.00;;
3004;SDS011;1512;51.486;6.610;2023-04-24T18:29:56;9.87;;;4.50;;
3004;SDS011;1512;51.486;6.610;2023-04-24T18:34:05;4.43;;;3.97;;
3004;SDS011;1512;51.486;6.610;2023-04-24T18:38:14;9.27;;;5.83;;
3004;SDS011;1512;51.486;6.610;2023-04-24T18:42:22;4.80;;;3.70;;
3004;SDS011;1512;51.486;6.610;2023-04-24T18:46:31;3.95;;;3.45;;
3004;SDS011;1512;51.486;6.610;2023-04-24T18:50:42;3.80;;;3.30;;
3004;SDS011;1512;51.486;6.610;2023-04-24T18:54:51;7.17;;;4.33;;
3004;SDS011;1512;51.486;6.610;2023-04-24T18:59:00;6.77;;;3.80;;
3004;SDS011;1512;51.486;6.610;2023-04-24T19:03:08;6.33;;;3.83;;
3004;SDS011;1512;51.486;6.610;2023-04-24T19:07:17;6.57;;;3.90;;
3004;SDS011;1512;51.486;6.610;2023-04-24T19:11:27;5.07;;;4.00;;
3004;SDS011;1512;51.486;6.610;2023-04-24T19:15:35;4.10;;;3.70;;
3004;SDS011;1512;51.486;6.610;2023-04-24T19:19:46;6.37;;;4.00;;
3004;SDS011;1512;51.486;6.610;2023-04-24T19:23:55;4.07;;;3.70;;
3004;SDS011;1512;51.486;6.610;2023-04-24T19:28:04;4.50;;;3.67;;
3004;SDS011;1512;51.486;6.610;2023-04-24T19:32:13;8.97;;;3.70;;
3004;SDS011;1512;51.486;6.610;2023-04-24T19:36:22;8.50;;;6.07;;
3004;SDS011;1512;51.486;6.610;2023-04-24T19:40:31;5.50;;;3.87;;
3004;SDS011;1512;51.486;6.610;2023-04-24T19:44:40;5.50;;;3.43;;
3004;SDS011;1512;51.486;6.610;2023-04-24T19:48:49;4.77;;;4.20;;
3004;SDS011;1512;51.486;6.610;2023-04-24T19:52:58;6.30;;;4.03;;
3004;SDS011;1512;51.486;6.610;2023-04-24T19:57:07;5.80;;;3.83;;
3004;SDS011;1512;51.486;6.610;2023-04-24T20:01:15;5.50;;;4.20;;
3004;SDS011;1512;51.486;6.610;2023-04-24T20:05:24;7.67;;;4.67;;
3004;SDS011;1512;51.486;6.610;2023-04-24T20:09:33;5.43;;;4.10;;
3004;SDS011;1512;51.486;6.610;2023-04-24T20:13:42;6.90;;;4.03;;
3004;SDS011;1512;51.486;6.610;2023-04-24T20:17:51;4.73;;;4.00;;
3004;SDS011;1512;51.486;6.610;2023-04-24T20:22:00;7.83;;;3.60;;
3004;SDS011;1512;51.486;6.610;2023-04-24T20:26:08;5.97;;;4.17;;
3004;SDS011;1512;51.486;6.610;2023-04-24T20:30:17;8.83;;;5.17;;
3004;SDS011;1512;51.486;6.610;2023-04-24T20:34:26;12.50;;;4.70;;
3004;SDS011;1512;51.486;6.610;2023-04-24T20:38:38;7.67;;;4.30;;
3004;SDS011;1512;51.486;6.610;2023-04-24T20:42:48;10.20;;;5.60;;
3004;SDS011;1512;51.486;6.610;2023-04-24T20:46:57;7.33;;;5.70;;
3004;SDS011;1512;51.486;6.610;2023-04-24T20:51:07;5.80;;;5.20;;
3004;SDS011;1512;51.486;6.610;2023-04-24T20:55:16;10.93;;;5.97;;
3004;SDS011;1512;51.486;6.610;2023-04-24T20:59:26;12.30;;;5.47;;
3004;SDS011;1512;51.486;6.610;2023-04-24T21:03:34;14.23;;;5.93;;
3004;SDS011;1512;51.486;6.610;2023-04-24T21:07:44;8.87;;;5.73;;
3004;SDS011;1512;51.486;6.610;2023-04-24T21:11:52;5.33;;;4.23;;
3004;SDS011;1512;51.486;6.610;2023-04-24T21:16:01;7.07;;;4.77;;
3004;SDS011;1512;51.486;6.610;2023-04-24T21:20:10;12.00;;;5.30;;
3004;SDS011;1512;51.486;6.610;2023-04-24T21:24:19;7.60;;;5.23;;
3004;SDS011;1512;51.486;6.610;2023-04-24T21:28:28;6.43;;;5.10;;
3004;SDS011;1512;51.486;6.610;2023-04-24T21:32:37;8.40;;;5.67;;
3004;SDS011;1512;51.486;6.610;2023-04-24T21:36:46;11.03;;;4.80;;
3004;SDS011;1512;51.486;6.610;2023-04-24T21:40:55;7.03;;;4.60;;
3004;SDS011;1512;51.486;6.610;2023-04-24T21:45:04;6.70;;;4.60;;
3004;SDS011;1512;51.486;6.610;2023-04-24T21:49:13;13.40;;;5.10;;
3004;SDS011;1512;51.486;6.610;2023-04-24T21:53:22;10.00;;;4.30;;
3004;SDS011;1512;51.486;6.610;2023-04-24T21:57:30;10.10;;;5.70;;
3004;SDS011;1512;51.486;6.610;2023-04-24T22:01:39;7.23;;;5.30;;
3004;SDS011;1512;51.486;6.610;2023-04-24T22:05:48;9.50;;;4.50;;
3004;SDS011;1512;51.486;6.610;2023-04-24T22:09:56;8.57;;;5.53;;
3004;SDS011;1512;51.486;6.610;2023-04-24T22:14:05;19.80;;;4.63;;
3004;SDS011;1512;51.486;6.610;2023-04-24T22:18:14;8.30;;;5.73;;
3004;SDS011;1512;51.486;6.610;2023-04-24T22:26:39;5.20;;;4.00;;
3004;SDS011;1512;51.486;6.610;2023-04-24T22:30:47;9.18;;;5.25;;
3004;SDS011;1512;51.486;6.610;2023-04-24T22:34:56;9.63;;;5.23;;
3004;SDS011;1512;51.486;6.610;2023-04-24T22:39:05;16.33;;;5.70;;
3004;SDS011;1512;51.486;6.610;2023-04-24T22:43:16;10.43;;;4.53;;
3004;SDS011;1512;51.486;6.610;2023-04-24T22:47:25;7.60;;;4.07;;
3004;SDS011;1512;51.486;6.610;2023-04-24T22:51:34;7.73;;;5.37;;
3004;SDS011;1512;51.486;6.610;2023-04-24T22:55:43;9.37;;;5.23;;
3004;SDS011;1512;51.486;6.610;2023-04-24T22:59:52;8.37;;;5.00;;
3004;SDS011;1512;51.486;6.610;2023-04-24T23:04:01;7.67;;;4.03;;
3004;SDS011;1512;51.486;6.610;2023-04-24T23:08:10;8.43;;;5.10;;
3004;SDS011;1512;51.486;6.610;2023-04-24T23:12:18;5.33;;;4.07;;
3004;SDS011;1512;51.486;6.610;2023-04-24T23:16:27;6.87;;;4.07;;
3004;SDS011;1512;51.486;6.610;2023-04-24T23:20:40;5.77;;;3.97;;
3004;SDS011;1512;51.486;6.610;2023-04-24T23:24:49;5.87;;;4.20;;
3004;SDS011;1512;51.486;6.610;2023-04-24T23:28:58;8.00;;;4.40;;
3004;SDS011;1512;51.486;6.610;2023-04-24T23:33:06;10.73;;;6.50;;
3004;SDS011;1512;51.486;6.610;2023-04-24T23:37:15;4.87;;;3.90;;
3004;SDS011;1512;51.486;6.610;2023-04-24T23:41:25;13.90;;;5.07;;
3004;SDS011;1512;51.486;6.610;2023-04-24T23:45:34;8.43;;;4.43;;
3004;SDS011;1512;51.486;6.610;2023-04-24T23:49:43;6.60;;;4.20;;
3004;SDS011;1512;51.486;6.610;2023-04-24T23:53:52;10.20;;;4.40;;
3004;SDS011;1512;51.486;6.610;2023-04-24T23:58:00;8.70;;;4.50;;
